Time;durP1;ratioP1;P1;durP2;ratioP2;P2;SDS_P1;SDS_P2;PMS_P1;PMS_P2;Temp;Humidity;BMP_temperature;BMP_pressure;BME280_temperature;BME280_humidity;BME280_pressure;Samples;Min_cycle;Max_cycle;Signal;HPM_P1;HPM_P2
2022/06/25 00:01:30;;;;;;;14.60;11.68;;;17.90;99.90;;;;;;5008848;28;20120;-86
2022/06/25 00:03:56;;;;;;;13.18;11.95;;;17.90;99.90;;;;;;4992458;28;20089;-86
2022/06/25 00:06:22;;;;;;;13.00;11.60;;;17.90;99.90;;;;;;5009503;28;20071;-86
2022/06/25 00:08:48;;;;;;;13.70;11.77;;;17.90;99.90;;;;;;5009413;28;20046;-86
2022/06/25 00:14:10;;;;;;;16.02;14.32;;;17.90;99.90;;;;;;5008302;28;20171;-85
2022/06/25 00:16:37;;;;;;;13.25;11.90;;;17.90;99.90;;;;;;5008631;28;20097;-86
2022/06/25 00:19:03;;;;;;;16.05;14.40;;;18.30;99.90;;;;;;4992937;28;20056;-86
2022/06/25 00:21:29;;;;;;;16.73;14.23;;;17.90;99.90;;;;;;5008037;28;20132;-85
2022/06/25 00:23:55;;;;;;;17.02;15.13;;;17.90;99.90;;;;;;4993964;28;20065;-85
2022/06/25 00:26:20;;;;;;;17.05;14.40;;;17.90;99.90;;;;;;4992761;28;20064;-85
2022/06/25 00:28:46;;;;;;;17.83;15.48;;;17.90;99.90;;;;;;5013015;28;20112;-85
2022/06/25 00:31:12;;;;;;;16.92;15.10;;;17.90;99.90;;;;;;5010441;28;20066;-86
2022/06/25 00:33:37;;;;;;;21.55;17.73;;;17.90;99.90;;;;;;5010573;28;20133;-86
2022/06/25 00:36:03;;;;;;;19.52;16.85;;;17.90;99.90;;;;;;5008839;28;20147;-86
2022/06/25 00:38:29;;;;;;;20.48;17.85;;;18.00;99.90;;;;;;5008921;28;20045;-85
2022/06/25 00:40:55;;;;;;;20.60;18.50;;;17.90;99.90;;;;;;5010529;28;20088;-86
2022/06/25 00:43:20;;;;;;;19.70;17.20;;;17.90;99.90;;;;;;5008984;28;20389;-86
2022/06/25 00:45:46;;;;;;;19.70;17.25;;;17.90;99.90;;;;;;5010544;28;20046;-85
2022/06/25 00:48:11;;;;;;;20.20;17.95;;;17.90;99.90;;;;;;5007640;28;20046;-86
2022/06/25 00:50:37;;;;;;;23.17;18.25;;;17.90;99.90;;;;;;4991978;28;20057;-86
2022/06/25 00:53:04;;;;;;;20.52;17.17;;;17.90;99.90;;;;;;5008215;28;20045;-86
2022/06/25 00:55:31;;;;;;;22.40;17.90;;;17.80;99.90;;;;;;5008545;28;20054;-86
2022/06/25 00:58:00;;;;;;;18.20;16.20;;;17.80;99.90;;;;;;5009890;28;20552;-87
2022/06/25 01:00:26;;;;;;;20.75;18.30;;;17.80;99.90;;;;;;5008600;28;20046;-86
2022/06/25 01:02:51;;;;;;;18.75;16.75;;;17.70;99.90;;;;;;5009334;28;20052;-86
2022/06/25 01:05:17;;;;;;;20.60;18.38;;;17.70;99.90;;;;;;5009032;28;20042;-87
2022/06/25 01:07:46;;;;;;;21.70;17.77;;;17.60;99.90;;;;;;4994341;28;20053;-86
2022/06/25 01:10:13;;;;;;;18.73;16.48;;;17.60;99.90;;;;;;5011431;28;20042;-86
2022/06/25 01:12:39;;;;;;;19.30;17.17;;;17.50;99.90;;;;;;4991285;28;20334;-86
2022/06/25 01:15:18;;;;;;;19.92;17.73;;;17.50;99.90;;;;;;4991886;28;20516;-87
2022/06/25 01:17:46;;;;;;;17.85;15.95;;;17.50;99.90;;;;;;5007322;28;20122;-86
2022/06/25 01:20:13;;;;;;;18.45;16.52;;;17.60;99.90;;;;;;4975918;28;20044;-87
2022/06/25 01:22:39;;;;;;;22.20;17.08;;;17.50;99.90;;;;;;5007816;28;20045;-85
2022/06/25 01:25:15;;;;;;;18.85;15.43;;;17.30;99.90;;;;;;5009289;28;20041;-86
2022/06/25 01:27:41;;;;;;;21.58;17.15;;;17.40;99.90;;;;;;5009996;28;20046;-86
2022/06/25 01:30:09;;;;;;;23.42;15.88;;;17.40;99.90;;;;;;5006800;28;20117;-87
2022/06/25 01:32:35;;;;;;;18.23;15.68;;;17.30;99.90;;;;;;5009239;28;20045;-85
2022/06/25 01:35:01;;;;;;;18.85;15.60;;;17.30;99.90;;;;;;5008178;28;20037;-86
2022/06/25 01:37:26;;;;;;;17.48;15.63;;;17.30;99.90;;;;;;5009206;28;20042;-86
2022/06/25 01:39:56;;;;;;;19.38;15.77;;;17.20;99.90;;;;;;5012980;28;20042;-85
2022/06/25 01:45:08;;;;;;;16.25;14.55;;;17.20;99.90;;;;;;5009243;28;20089;-85
2022/06/25 01:47:34;;;;;;;18.45;14.82;;;17.20;99.90;;;;;;4989950;28;20489;-84
2022/06/25 01:49:59;;;;;;;18.90;14.45;;;17.20;99.90;;;;;;5007745;28;20077;-85
2022/06/25 01:52:26;;;;;;;16.88;14.93;;;17.20;99.90;;;;;;4990489;28;20078;-85
2022/06/25 01:54:52;;;;;;;18.48;15.40;;;17.10;99.90;;;;;;5007213;28;20143;-85
2022/06/25 01:57:18;;;;;;;15.70;13.43;;;17.10;99.90;;;;;;5006953;28;20042;-86
2022/06/25 01:59:48;;;;;;;17.25;15.32;;;17.10;99.90;;;;;;5006240;28;20050;-85
2022/06/25 02:02:14;;;;;;;18.15;13.93;;;17.10;99.90;;;;;;5007065;28;20054;-85
2022/06/25 02:04:40;;;;;;;18.42;13.85;;;17.10;99.90;;;;;;4989601;28;20120;-85
2022/06/25 02:07:06;;;;;;;21.42;15.13;;;17.00;99.90;;;;;;5007487;28;20038;-85
2022/06/25 02:09:32;;;;;;;16.33;13.85;;;17.00;99.90;;;;;;5006301;28;20108;-85
2022/06/25 02:11:57;;;;;;;18.33;12.57;;;17.00;99.90;;;;;;4990658;28;20042;-87
2022/06/25 02:14:24;;;;;;;17.67;13.80;;;17.00;99.90;;;;;;4974004;28;20054;-87
2022/06/25 02:16:49;;;;;;;16.40;13.70;;;17.00;99.90;;;;;;4989751;28;20092;-87
2022/06/25 02:19:15;;;;;;;14.27;12.32;;;17.00;99.90;;;;;;4974542;28;20469;-86
2022/06/25 02:21:41;;;;;;;14.63;12.73;;;17.00;99.90;;;;;;5005688;28;20400;-87
2022/06/25 02:24:06;;;;;;;20.73;12.15;;;17.00;99.90;;;;;;4990846;28;20335;-86
2022/06/25 02:26:32;;;;;;;19.88;13.60;;;17.00;99.90;;;;;;4989910;28;20054;-86
2022/06/25 02:28:58;;;;;;;13.75;12.32;;;17.00;99.90;;;;;;5007243;28;20571;-86
2022/06/25 02:31:23;;;;;;;13.65;12.25;;;17.00;99.90;;;;;;4990109;28;20038;-87
2022/06/25 02:33:49;;;;;;;13.38;11.90;;;17.10;99.90;;;;;;4990092;28;20045;-86
2022/06/25 02:36:15;;;;;;;14.75;12.80;;;17.10;99.90;;;;;;4992764;28;20053;-86
2022/06/25 02:38:41;;;;;;;14.13;11.75;;;17.10;99.90;;;;;;4976356;28;20057;-86
2022/06/25 02:41:06;;;;;;;14.30;11.45;;;17.10;99.90;;;;;;4991114;28;20501;-86
2022/06/25 02:43:32;;;;;;;13.38;11.82;;;17.10;99.90;;;;;;5005797;28;20050;-86
2022/06/25 02:45:58;;;;;;;13.23;11.45;;;17.10;99.90;;;;;;5007366;28;20524;-87
2022/06/25 02:48:23;;;;;;;11.95;10.65;;;17.10;99.90;;;;;;5006508;28;20520;-87
2022/06/25 02:50:49;;;;;;;12.77;11.45;;;17.00;99.90;;;;;;5006415;28;20520;-87
2022/06/25 02:53:15;;;;;;;13.10;11.32;;;17.10;99.90;;;;;;4974328;28;20503;-88
2022/06/25 03:01:09;;;;;;;12.10;10.25;;;17.00;99.90;;;;;;5006315;28;20081;-87
2022/06/25 03:03:34;;;;;;;11.00;9.63;;;17.00;99.90;;;;;;4990233;28;20381;-87
2022/06/25 03:06:00;;;;;;;12.75;11.20;;;17.00;99.90;;;;;;4990393;28;20501;-87
2022/06/25 03:08:26;;;;;;;11.45;10.25;;;17.00;99.90;;;;;;5005463;28;20133;-88
2022/06/25 03:10:52;;;;;;;12.80;10.50;;;17.00;99.90;;;;;;4990569;28;20042;-87
2022/06/25 03:13:18;;;;;;;11.73;10.02;;;17.00;99.90;;;;;;5005710;28;20073;-87
2022/06/25 03:15:44;;;;;;;11.85;10.13;;;17.00;99.90;;;;;;4990401;28;20066;-87
2022/06/25 03:18:09;;;;;;;12.30;9.48;;;17.00;99.90;;;;;;5005703;28;20436;-87
2022/06/25 03:20:35;;;;;;;12.25;10.43;;;16.90;99.90;;;;;;4974377;28;20042;-86
2022/06/25 03:23:01;;;;;;;12.02;9.73;;;17.00;99.90;;;;;;5006211;28;20556;-86
2022/06/25 03:25:27;;;;;;;12.15;9.98;;;17.00;99.90;;;;;;5005799;28;20050;-86
2022/06/25 03:27:53;;;;;;;12.75;10.73;;;16.90;99.90;;;;;;5009858;28;20042;-86
2022/06/25 03:30:19;;;;;;;11.55;9.65;;;16.90;99.90;;;;;;5008956;28;20050;-86
2022/06/25 03:32:44;;;;;;;10.30;9.13;;;17.00;99.90;;;;;;4994229;28;20038;-85
2022/06/25 03:35:10;;;;;;;11.05;8.77;;;16.90;99.90;;;;;;5011909;28;20042;-85
2022/06/25 03:37:36;;;;;;;10.65;8.98;;;16.90;99.90;;;;;;4997352;28;20042;-86
2022/06/25 03:40:02;;;;;;;10.38;9.23;;;16.90;99.90;;;;;;4993722;28;20109;-86
2022/06/25 03:42:27;;;;;;;10.68;9.57;;;16.90;99.90;;;;;;4992813;28;20053;-86
2022/06/25 03:44:53;;;;;;;13.60;9.93;;;16.90;99.90;;;;;;5011030;28;20041;-86
2022/06/25 03:47:19;;;;;;;9.60;8.68;;;17.80;99.90;;;;;;4992593;28;20081;-86
2022/06/25 03:49:44;;;;;;;11.73;9.48;;;16.90;99.90;;;;;;5009668;28;20050;-86
2022/06/25 03:52:10;;;;;;;10.18;8.40;;;17.00;99.90;;;;;;4975980;28;20050;-86
2022/06/25 03:54:36;;;;;;;9.90;8.90;;;16.90;99.90;;;;;;4993530;28;20034;-86
2022/06/25 03:57:03;;;;;;;15.23;8.82;;;17.00;99.90;;;;;;5009041;28;20046;-86
2022/06/25 03:59:31;;;;;;;15.05;8.77;;;16.90;99.90;;;;;;4992316;28;20053;-86
2022/06/25 04:01:57;;;;;;;11.32;8.00;;;17.00;99.90;;;;;;5010370;28;20057;-86
2022/06/25 04:04:22;;;;;;;8.10;7.28;;;17.30;99.90;;;;;;4962047;28;20046;-86
2022/06/25 04:06:48;;;;;;;9.38;8.32;;;17.00;99.90;;;;;;4995238;28;20042;-86
2022/06/25 04:09:14;;;;;;;10.98;8.68;;;17.00;99.90;;;;;;5008038;28;20049;-86
2022/06/25 04:11:39;;;;;;;9.60;8.40;;;17.00;99.90;;;;;;4993614;28;20111;-86
2022/06/25 04:14:06;;;;;;;9.20;8.30;;;17.10;99.90;;;;;;4976042;28;20053;-82
2022/06/25 04:16:33;;;;;;;11.05;7.72;;;17.10;99.90;;;;;;5008298;28;20565;-86
2022/06/25 04:18:58;;;;;;;9.93;8.23;;;17.10;99.90;;;;;;4992721;28;20528;-86
2022/06/25 04:21:25;;;;;;;10.52;8.60;;;17.10;99.90;;;;;;4991985;28;20050;-86
2022/06/25 04:23:51;;;;;;;8.40;7.55;;;17.10;99.90;;;;;;4976477;28;20053;-87
2022/06/25 04:26:16;;;;;;;12.25;7.60;;;17.20;99.90;;;;;;5007980;28;20506;-86
2022/06/25 04:31:27;;;;;;;7.68;6.68;;;17.30;99.90;;;;;;4995240;28;20050;-85
2022/06/25 04:33:53;;;;;;;16.98;7.18;;;17.30;99.90;;;;;;4992197;28;20042;-86
2022/06/25 04:36:19;;;;;;;8.20;7.25;;;17.30;99.90;;;;;;5008868;28;20046;-85
2022/06/25 04:38:45;;;;;;;7.57;6.68;;;17.00;99.90;;;;;;5006229;28;20056;-85
2022/06/25 04:41:12;;;;;;;8.70;7.47;;;17.40;99.90;;;;;;5009437;28;20052;-87
2022/06/25 04:43:38;;;;;;;8.32;6.18;;;17.50;99.90;;;;;;5007839;28;20042;-85
2022/06/25 04:46:03;;;;;;;7.53;6.57;;;17.50;99.90;;;;;;5008818;28;20050;-84
2022/06/25 04:48:29;;;;;;;9.85;6.10;;;17.50;99.90;;;;;;5009075;28;20050;-86
2022/06/25 04:50:55;;;;;;;6.72;5.80;;;17.50;99.90;;;;;;4991570;28;20129;-86
2022/06/25 04:53:20;;;;;;;8.95;6.45;;;17.60;99.90;;;;;;4992296;28;20046;-87
2022/06/25 04:55:46;;;;;;;7.85;6.55;;;17.60;99.90;;;;;;4991620;28;20100;-86
2022/06/25 04:58:12;;;;;;;6.88;6.20;;;17.60;99.90;;;;;;4992729;28;20100;-87
2022/06/25 05:00:38;;;;;;;9.00;6.47;;;17.70;99.90;;;;;;4990897;28;20436;-88
2022/06/25 05:03:04;;;;;;;7.55;6.72;;;17.70;99.90;;;;;;4993165;28;20102;-92
2022/06/25 05:05:30;;;;;;;8.02;6.50;;;17.80;99.90;;;;;;4960409;28;20398;-89
2022/06/25 05:07:55;;;;;;;8.77;6.25;;;17.80;99.90;;;;;;4992055;28;20042;-87
2022/06/25 05:10:21;;;;;;;7.32;5.82;;;17.80;99.90;;;;;;4976356;28;20049;-88
2022/06/25 05:15:31;;;;;;;7.90;5.78;;;17.90;99.90;;;;;;4981453;28;20185;-87
2022/06/25 05:17:57;;;;;;;6.57;5.88;;;18.00;99.90;;;;;;4975754;28;20544;-87
2022/06/25 05:20:23;;;;;;;7.10;5.55;;;18.00;99.90;;;;;;5009097;28;20099;-88
2022/06/25 05:22:48;;;;;;;6.30;5.40;;;18.00;99.90;;;;;;4959833;28;20107;-89
2022/06/25 05:25:14;;;;;;;8.65;5.53;;;18.10;99.90;;;;;;4975959;28;20042;-84
2022/06/25 05:27:40;;;;;;;8.70;5.72;;;18.20;99.90;;;;;;5009591;28;20045;-89
2022/06/25 05:30:07;;;;;;;7.95;5.65;;;18.20;99.90;;;;;;4979720;28;20060;-91
2022/06/25 05:32:33;;;;;;;9.25;5.78;;;18.30;99.90;;;;;;5001322;28;20089;-91
2022/06/25 05:34:58;;;;;;;6.53;5.13;;;18.30;99.90;;;;;;4965197;28;20489;-89
2022/06/25 05:37:24;;;;;;;7.38;5.40;;;18.40;99.90;;;;;;4964252;28;20104;-90
2022/06/25 05:39:51;;;;;;;9.50;6.18;;;18.40;99.90;;;;;;4992568;28;20053;-88
2022/06/25 05:42:19;;;;;;;8.55;5.47;;;18.40;99.90;;;;;;5007468;28;20104;-87
2022/06/25 05:44:46;;;;;;;6.20;5.28;;;18.50;99.90;;;;;;4977866;28;20084;-89
2022/06/25 05:47:12;;;;;;;6.03;5.43;;;18.50;99.90;;;;;;4976306;28;20386;-90
2022/06/25 05:49:38;;;;;;;8.82;5.40;;;18.60;99.90;;;;;;5009465;28;20041;-93
2022/06/25 05:52:05;;;;;;;9.27;5.55;;;18.60;99.90;;;;;;4992021;28;20151;-92
2022/06/25 05:54:30;;;;;;;6.25;4.95;;;18.70;99.90;;;;;;5010415;28;20520;-87
2022/06/25 05:56:56;;;;;;;5.38;4.88;;;18.70;99.90;;;;;;5007803;28;20089;-89
2022/06/25 05:59:22;;;;;;;6.18;4.80;;;18.70;99.90;;;;;;4990869;28;20049;-89
2022/06/25 06:01:47;;;;;;;10.00;5.72;;;18.80;99.90;;;;;;4975074;28;20057;-86
2022/06/25 06:04:13;;;;;;;7.43;5.15;;;18.90;99.90;;;;;;4974269;28;20042;-87
2022/06/25 06:06:39;;;;;;;5.35;4.75;;;18.90;99.90;;;;;;4991592;28;20038;-87
2022/06/25 06:09:04;;;;;;;8.50;4.90;;;19.00;99.90;;;;;;4974077;28;20046;-86
2022/06/25 06:11:30;;;;;;;5.28;4.47;;;19.00;99.90;;;;;;5007691;28;20489;-87
2022/06/25 06:13:56;;;;;;;9.07;5.30;;;19.10;99.90;;;;;;4990679;28;20049;-87
2022/06/25 06:16:22;;;;;;;5.97;4.68;;;19.10;99.90;;;;;;4990549;28;20437;-87
2022/06/25 06:18:48;;;;;;;5.88;4.50;;;19.20;99.90;;;;;;4991398;28;20120;-88
2022/06/25 06:21:13;;;;;;;5.45;4.25;;;19.30;99.90;;;;;;4989681;28;20544;-87
2022/06/25 06:23:39;;;;;;;5.32;4.72;;;19.40;99.90;;;;;;4990952;28;20048;-87
2022/06/25 06:26:05;;;;;;;5.35;4.85;;;19.50;99.90;;;;;;5006034;28;20069;-88
2022/06/25 06:28:30;;;;;;;6.47;4.40;;;19.50;99.90;;;;;;4959355;28;20053;-87
2022/06/25 06:30:56;;;;;;;7.47;4.53;;;19.50;99.90;;;;;;5006683;28;20421;-87
2022/06/25 06:33:22;;;;;;;9.05;4.18;;;19.60;99.90;;;;;;5008014;28;20176;-88
2022/06/25 06:35:47;;;;;;;7.38;4.88;;;19.70;99.90;;;;;;4960866;28;20037;-88
2022/06/25 06:38:13;;;;;;;6.10;4.30;;;19.80;99.90;;;;;;4992012;28;20440;-87
2022/06/25 06:40:39;;;;;;;5.85;3.92;;;19.90;99.90;;;;;;4977450;28;20129;-88
2022/06/25 06:43:05;;;;;;;6.93;4.32;;;20.00;99.90;;;;;;4977771;28;20141;-88
2022/06/25 06:45:31;;;;;;;6.07;4.25;;;20.10;99.90;;;;;;4993975;28;20243;-87
2022/06/25 06:47:57;;;;;;;4.85;3.97;;;20.20;99.90;;;;;;4992845;28;20112;-85
2022/06/25 06:50:23;;;;;;;9.32;4.60;;;20.20;99.90;;;;;;5010399;28;20508;-85
2022/06/25 06:52:49;;;;;;;6.43;4.35;;;20.30;99.90;;;;;;4991647;28;20038;-86
2022/06/25 06:55:15;;;;;;;4.32;3.92;;;20.40;99.90;;;;;;4992928;28;20049;-86
2022/06/25 06:57:40;;;;;;;9.30;5.20;;;20.40;99.90;;;;;;5010950;28;20477;-86
2022/06/25 07:00:07;;;;;;;5.05;4.05;;;20.50;99.90;;;;;;4978121;28;20056;-86
2022/06/25 07:02:33;;;;;;;7.53;4.28;;;20.60;99.90;;;;;;4998975;28;20048;-86
2022/06/25 07:04:59;;;;;;;4.30;3.17;;;20.70;99.90;;;;;;5014115;28;20048;-85
2022/06/25 07:07:25;;;;;;;6.60;3.95;;;20.70;99.90;;;;;;4967693;28;20041;-88
2022/06/25 07:09:51;;;;;;;6.53;3.83;;;20.80;99.90;;;;;;5015870;28;20140;-88
2022/06/25 07:12:17;;;;;;;4.28;3.35;;;21.00;99.90;;;;;;4998771;28;20070;-88
2022/06/25 07:14:43;;;;;;;5.10;3.70;;;21.00;99.90;;;;;;4983083;28;20058;-87
2022/06/25 07:17:09;;;;;;;7.00;3.85;;;21.00;99.90;;;;;;4966532;28;20046;-89
2022/06/25 07:19:34;;;;;;;3.83;3.42;;;21.10;99.90;;;;;;4999019;28;20080;-88
2022/06/25 07:22:00;;;;;;;6.22;3.42;;;21.10;99.90;;;;;;4980539;28;20056;-86
2022/06/25 07:24:26;;;;;;;4.55;2.65;;;21.10;99.90;;;;;;5013228;28;20121;-87
2022/06/25 07:26:51;;;;;;;5.70;2.97;;;21.20;99.90;;;;;;4993892;28;20639;-86
2022/06/25 07:29:17;;;;;;;3.55;2.60;;;21.30;99.90;;;;;;5012925;28;20046;-86
2022/06/25 07:31:43;;;;;;;7.25;2.80;;;21.40;99.90;;;;;;5005301;28;20038;-88
2022/06/25 07:34:10;;;;;;;5.22;2.60;;;21.30;99.90;;;;;;5017266;28;20633;-87
2022/06/25 07:36:36;;;;;;;4.90;2.67;;;21.50;99.90;;;;;;5017215;28;20054;-85
2022/06/25 07:39:03;;;;;;;4.97;3.13;;;21.60;99.90;;;;;;5013945;28;20062;-83
2022/06/25 07:41:32;;;;;;;6.97;3.72;;;21.70;99.90;;;;;;5015225;28;20117;-84
2022/06/25 07:44:02;;;;;;;5.50;3.30;;;21.70;99.90;;;;;;5014613;28;20060;-83
2022/06/25 07:46:28;;;;;;;3.50;2.53;;;21.80;99.90;;;;;;4980431;28;20050;-86
2022/06/25 07:48:54;;;;;;;4.88;2.65;;;21.90;99.90;;;;;;5013106;28;20061;-84
2022/06/25 07:54:12;;;;;;;4.78;2.33;;;22.00;99.90;;;;;;5013427;28;20099;-85
2022/06/25 07:56:38;;;;;;;8.32;2.45;;;22.20;99.90;;;;;;5009559;28;20065;-86
2022/06/25 07:59:07;;;;;;;4.55;2.28;;;22.30;99.90;;;;;;5011221;28;20060;-84
2022/06/25 08:01:34;;;;;;;5.93;2.20;;;22.40;99.90;;;;;;5012156;28;20054;-85
2022/06/25 08:04:05;;;;;;;4.43;2.30;;;22.50;99.90;;;;;;5011006;28;20087;-82
2022/06/25 08:06:34;;;;;;;7.93;3.15;;;22.60;99.90;;;;;;5012423;28;20072;-87
2022/06/25 08:09:02;;;;;;;4.45;2.28;;;22.60;99.90;;;;;;4978994;28;20072;-87
2022/06/25 08:11:28;;;;;;;5.00;2.55;;;22.40;99.90;;;;;;5010839;28;20065;-86
2022/06/25 08:13:58;;;;;;;4.05;1.90;;;22.70;99.90;;;;;;4999127;28;20046;-84
2022/06/25 08:16:25;;;;;;;3.38;2.00;;;22.70;99.90;;;;;;4997869;28;20126;-82
2022/06/25 08:18:56;;;;;;;4.53;1.90;;;22.70;99.90;;;;;;5014656;28;20056;-83
2022/06/25 08:21:22;;;;;;;2.92;1.55;;;22.70;99.90;;;;;;5008682;28;20053;-83
2022/06/25 08:23:48;;;;;;;2.83;1.67;;;22.80;99.90;;;;;;5012227;28;20046;-85
2022/06/25 08:26:15;;;;;;;2.00;1.27;;;22.90;99.90;;;;;;4992850;28;20421;-84
2022/06/25 08:28:42;;;;;;;3.65;1.40;;;23.00;99.90;;;;;;5009569;28;20448;-85
2022/06/25 08:31:08;;;;;;;3.40;1.20;;;23.10;99.90;;;;;;4959451;28;20037;-83
2022/06/25 08:33:33;;;;;;;3.28;1.33;;;23.20;99.90;;;;;;5008977;28;20053;-87
2022/06/25 08:35:59;;;;;;;1.95;1.00;;;23.90;99.90;;;;;;5012237;28;20098;-87
2022/06/25 08:38:26;;;;;;;5.65;1.17;;;23.50;99.90;;;;;;5009245;28;20046;-87
2022/06/25 08:40:56;;;;;;;2.58;1.20;;;23.70;99.90;;;;;;5010995;28;20500;-87
2022/06/25 08:43:22;;;;;;;3.38;0.90;;;23.80;99.90;;;;;;5009376;28;20041;-87
2022/06/25 08:45:48;;;;;;;4.10;1.52;;;24.10;99.90;;;;;;5009535;28;20512;-86
2022/06/25 08:48:21;;;;;;;2.17;0.82;;;24.30;99.90;;;;;;4992093;28;20049;-87
2022/06/25 08:50:49;;;;;;;6.30;1.10;;;24.40;99.90;;;;;;5009756;28;20042;-88
2022/06/25 08:53:15;;;;;;;3.05;1.05;;;24.40;99.90;;;;;;4992435;28;20050;-87
2022/06/25 08:55:41;;;;;;;4.43;1.10;;;24.20;99.90;;;;;;5009174;28;20050;-89
2022/06/25 08:58:09;;;;;;;3.13;1.02;;;24.20;99.90;;;;;;5008932;28;20171;-87
2022/06/25 09:00:37;;;;;;;2.17;0.80;;;24.20;99.90;;;;;;5008626;28;20042;-88
2022/06/25 09:03:04;;;;;;;1.83;0.80;;;24.00;99.90;;;;;;4993645;28;20149;-87
2022/06/25 09:05:35;;;;;;;4.90;1.50;;;23.90;99.90;;;;;;5007848;28;20041;-87
2022/06/25 09:08:03;;;;;;;4.00;1.38;;;23.90;99.90;;;;;;5008716;28;20085;-86
2022/06/25 09:10:30;;;;;;;4.47;1.00;;;23.80;99.90;;;;;;4992135;28;20050;-87
2022/06/25 09:13:01;;;;;;;4.45;1.17;;;23.80;99.90;;;;;;5007214;28;20046;-87
2022/06/25 09:15:38;;;;;;;1.92;1.15;;;23.80;99.90;;;;;;5009512;28;20061;-87
2022/06/25 09:18:16;;;;;;;3.17;1.40;;;23.90;99.90;;;;;;5008928;28;20080;-87
2022/06/25 09:20:59;;;;;;;2.17;1.02;;;23.90;99.90;;;;;;5008380;28;20129;-87
2022/06/25 09:23:27;;;;;;;2.17;1.10;;;24.00;99.90;;;;;;5008422;28;20061;-88
2022/06/25 09:26:11;;;;;;;3.03;1.60;;;24.00;99.90;;;;;;4991129;28;20060;-88
2022/06/25 09:28:39;;;;;;;3.30;1.35;;;24.20;99.90;;;;;;4996010;28;20045;-88
2022/06/25 09:31:05;;;;;;;1.92;1.15;;;24.20;99.90;;;;;;4994047;28;20128;-88
2022/06/25 09:33:32;;;;;;;3.35;1.20;;;24.10;99.90;;;;;;4992446;28;20046;-88
2022/06/25 09:35:59;;;;;;;1.73;1.00;;;24.00;99.90;;;;;;5008863;28;20080;-88
2022/06/25 09:38:25;;;;;;;3.00;0.90;;;23.90;99.90;;;;;;4990929;28;20050;-87
2022/06/25 09:40:59;;;;;;;3.63;0.80;;;23.90;99.90;;;;;;4959893;28;20112;-87
2022/06/25 09:43:27;;;;;;;1.38;0.60;;;23.90;99.90;;;;;;4991341;28;20422;-88
2022/06/25 09:45:54;;;;;;;1.90;0.82;;;24.00;99.90;;;;;;5008933;28;20488;-88
2022/06/25 09:48:28;;;;;;;2.13;0.88;;;24.20;99.90;;;;;;4992234;28;20129;-88
2022/06/25 09:51:10;;;;;;;4.57;1.25;;;24.50;99.90;;;;;;4990761;28;20046;-89
2022/06/25 09:53:51;;;;;;;3.22;0.93;;;24.60;99.90;;;;;;5009180;28;20077;-88
2022/06/25 09:56:29;;;;;;;2.88;1.10;;;24.70;99.90;;;;;;4990345;28;20056;-88
2022/06/25 09:58:55;;;;;;;1.70;0.70;;;24.80;99.90;;;;;;4991168;28;20073;-88
2022/06/25 10:01:27;;;;;;;1.63;1.10;;;24.90;99.90;;;;;;5007829;28;20464;-89
2022/06/25 10:03:53;;;;;;;1.13;0.77;;;25.00;99.90;;;;;;5006395;28;20100;-89
2022/06/25 10:06:21;;;;;;;1.90;0.60;;;25.10;99.90;;;;;;5008415;28;20045;-88
2022/06/25 10:08:58;;;;;;;1.80;0.82;;;25.10;99.90;;;;;;5006167;28;20042;-89
2022/06/25 10:11:30;;;;;;;1.77;0.68;;;25.10;99.90;;;;;;4991515;28;20400;-88
2022/06/25 10:13:56;;;;;;;0.80;0.60;;;25.00;99.90;;;;;;4990460;28;20046;-89
2022/06/25 10:16:24;;;;;;;1.50;0.63;;;25.00;99.90;;;;;;5006514;28;20058;-89
2022/06/25 10:18:50;;;;;;;1.55;0.60;;;25.00;99.90;;;;;;4991115;28;20045;-89
2022/06/25 10:21:20;;;;;;;5.65;0.47;;;25.00;99.90;;;;;;5005760;28;20112;-88
2022/06/25 10:23:52;;;;;;;2.55;0.45;;;25.00;99.90;;;;;;5007105;28;20038;-88
2022/06/25 10:26:19;;;;;;;1.85;0.50;;;25.00;99.90;;;;;;5006047;28;20080;-89
2022/06/25 10:28:46;;;;;;;0.80;0.40;;;25.00;99.90;;;;;;5007042;28;20042;-88
2022/06/25 10:31:17;;;;;;;2.38;0.93;;;25.00;99.90;;;;;;4991171;28;20107;-89
2022/06/25 10:34:04;;;;;;;0.60;0.40;;;25.00;99.90;;;;;;5007718;28;20042;-88
2022/06/25 10:36:47;;;;;;;2.63;0.60;;;25.10;99.90;;;;;;5006936;28;20112;-88
2022/06/25 10:39:25;;;;;;;1.00;0.60;;;25.20;99.90;;;;;;4990108;28;20520;-89
2022/06/25 10:45:15;;;;;;;1.83;0.50;;;25.20;99.90;;;;;;5008080;28;20081;-89
2022/06/25 10:47:47;;;;;;;2.33;0.50;;;25.10;99.90;;;;;;5010903;28;20049;-89
2022/06/25 10:50:22;;;;;;;4.55;0.65;;;25.20;99.90;;;;;;5013659;28;20049;-89
2022/06/25 10:53:06;;;;;;;1.65;0.70;;;25.20;99.90;;;;;;5015789;28;20053;-89
2022/06/25 10:55:40;;;;;;;2.97;0.60;;;25.20;99.90;;;;;;4999723;28;20327;-89
2022/06/25 10:58:10;;;;;;;0.98;0.50;;;25.20;99.90;;;;;;5001404;28;20077;-89
2022/06/25 11:00:47;;;;;;;1.42;0.50;;;25.20;99.90;;;;;;5014914;28;20424;-89
2022/06/25 11:03:13;;;;;;;1.55;0.45;;;25.10;99.90;;;;;;5015934;28;20052;-89
2022/06/25 11:05:45;;;;;;;1.15;0.40;;;25.00;99.90;;;;;;5017624;28;20093;-88
2022/06/25 11:08:12;;;;;;;0.95;0.40;;;24.80;99.90;;;;;;5017476;28;20077;-88
2022/06/25 11:10:39;;;;;;;3.75;0.70;;;24.70;99.90;;;;;;5004953;28;20060;-89
2022/06/25 11:13:05;;;;;;;0.85;0.30;;;24.50;99.90;;;;;;4985652;28;20050;-90
2022/06/25 11:15:41;;;;;;;0.70;0.35;;;24.30;99.90;;;;;;5019144;28;20559;-90
2022/06/25 11:18:14;;;;;;;3.75;0.80;;;24.10;99.90;;;;;;5002320;28;20057;-89
2022/06/25 11:20:41;;;;;;;3.40;0.60;;;23.90;99.90;;;;;;5004214;28;20053;-89
2022/06/25 11:23:12;;;;;;;1.27;0.55;;;23.80;99.90;;;;;;4989476;28;20142;-88
2022/06/25 11:28:48;;;;;;;8.48;0.70;;;23.50;99.90;;;;;;4998439;28;20112;-89
2022/06/25 11:31:19;;;;;;;1.75;0.77;;;23.40;99.90;;;;;;5014104;28;20468;-89
2022/06/25 11:33:46;;;;;;;2.33;0.80;;;23.30;99.90;;;;;;5000035;28;20050;-89
2022/06/25 11:36:13;;;;;;;2.00;0.60;;;23.20;99.90;;;;;;4998825;28;20133;-89
2022/06/25 11:38:40;;;;;;;2.22;0.60;;;23.00;99.90;;;;;;5007138;28;20046;-88
2022/06/25 11:41:06;;;;;;;2.97;0.50;;;22.90;99.90;;;;;;4976434;28;20045;-88
2022/06/25 11:43:34;;;;;;;2.03;0.80;;;22.80;99.90;;;;;;4991453;28;20042;-87
2022/06/25 11:46:00;;;;;;;1.30;0.60;;;22.80;99.90;;;;;;4991323;28;20045;-88
2022/06/25 11:48:28;;;;;;;3.28;0.93;;;22.80;99.90;;;;;;4977024;28;20046;-89
2022/06/25 11:50:55;;;;;;;1.25;0.68;;;23.00;99.90;;;;;;4993217;28;20056;-88
2022/06/25 11:53:21;;;;;;;2.25;0.88;;;23.10;99.90;;;;;;5010451;28;20053;-88
2022/06/25 11:56:05;;;;;;;2.03;0.65;;;23.20;99.90;;;;;;5008803;28;20046;-88
2022/06/25 11:58:32;;;;;;;2.63;0.77;;;23.20;99.90;;;;;;4994261;28;20049;-88
2022/06/25 12:01:00;;;;;;;1.30;0.70;;;23.30;99.90;;;;;;4993071;28;20050;-88
2022/06/25 12:03:27;;;;;;;1.40;0.40;;;23.60;99.90;;;;;;4993067;28;20081;-88
2022/06/25 12:05:55;;;;;;;1.65;0.52;;;23.90;99.90;;;;;;4978086;28;20041;-88
2022/06/25 12:08:22;;;;;;;1.05;0.50;;;24.20;99.90;;;;;;5008736;28;20048;-89
2022/06/25 12:10:48;;;;;;;1.20;0.50;;;24.50;99.90;;;;;;4993629;28;20141;-89
2022/06/25 12:13:15;;;;;;;0.77;0.50;;;25.50;99.90;;;;;;5011971;28;20042;-88
2022/06/25 12:15:41;;;;;;;2.00;0.45;;;24.70;99.90;;;;;;5012759;28;20085;-88
2022/06/25 12:18:09;;;;;;;1.30;0.50;;;24.70;99.90;;;;;;5015258;28;20085;-87
2022/06/25 12:20:35;;;;;;;3.40;0.60;;;24.60;99.90;;;;;;4982436;28;20073;-88
2022/06/25 12:23:01;;;;;;;4.05;0.82;;;24.60;99.90;;;;;;4996991;28;20543;-89
2022/06/25 12:25:33;;;;;;;2.80;0.52;;;24.50;99.90;;;;;;5011619;28;20034;-88
2022/06/25 12:27:59;;;;;;;2.35;0.77;;;24.30;99.90;;;;;;4980469;28;20519;-88
2022/06/25 12:30:32;;;;;;;2.15;0.52;;;24.30;99.90;;;;;;4994774;28;20046;-88
2022/06/25 12:33:14;;;;;;;1.08;0.47;;;24.20;99.90;;;;;;4979910;28;20046;-88
2022/06/25 12:35:45;;;;;;;1.13;0.40;;;24.10;99.90;;;;;;5012818;28;20153;-89
2022/06/25 12:38:14;;;;;;;1.98;0.85;;;23.90;99.90;;;;;;5011875;28;20301;-88
2022/06/25 12:40:42;;;;;;;0.77;0.60;;;23.70;99.90;;;;;;5013132;28;20092;-84
2022/06/25 12:43:09;;;;;;;2.60;0.75;;;23.40;99.90;;;;;;4995043;28;20037;-87
2022/06/25 12:45:40;;;;;;;2.08;0.47;;;23.30;99.90;;;;;;5012638;28;20141;-88
2022/06/25 12:48:09;;;;;;;1.52;0.40;;;23.10;99.90;;;;;;4995555;28;20050;-87
2022/06/25 12:50:36;;;;;;;1.10;0.47;;;23.00;99.90;;;;;;5011652;28;20045;-87
2022/06/25 12:53:15;;;;;;;1.48;0.70;;;22.80;99.90;;;;;;4995630;28;20448;-87
2022/06/25 12:55:45;;;;;;;1.27;0.60;;;22.80;99.90;;;;;;5009382;28;20068;-87
2022/06/25 12:58:15;;;;;;;1.73;0.77;;;22.60;99.90;;;;;;4994168;28;20049;-87
2022/06/25 13:00:43;;;;;;;2.53;1.08;;;22.40;99.90;;;;;;4996625;28;20046;-87
2022/06/25 13:03:10;;;;;;;1.45;0.70;;;22.50;99.90;;;;;;4997917;28;20525;-87
2022/06/25 13:05:36;;;;;;;1.92;0.90;;;22.50;99.90;;;;;;4981988;28;20505;-88
2022/06/25 13:08:02;;;;;;;1.88;0.73;;;22.40;99.90;;;;;;5013783;28;20042;-87